FIN165 EFRO-EFHK
Flight info
| Callsign | FIN165 |
|---|---|
| Flight time | 1h 12m |
| Altitude | 37000 |
| Route | RENVI4A RENVI Y86 EVSET DCT IBOSU Y86 LUSEP LUSEP4M |
| Aircraft | A320/M-SDE3FGHIRWY/LB1 |
Departure
| Time | 2026-05-07 19:58 |
|---|---|
| Airport | Rovaniemi Airport (EFRO) |
Arrival
| Time | 2026-05-07 21:10 |
|---|---|
| Airport | Helsinki Vantaa Airport (EFHK) |
| Time | Latitude | Longitude | Altitude | Speed | Heading |
|---|---|---|---|---|---|
| 2026-05-07 19:37 | 66.55904 | 25.82832 | 628 ft | 0 kts | 163° |
| 2026-05-07 19:51 | 66.55911 | 25.82827 | 641 ft | 4 kts | 164° |
| 2026-05-07 19:51 | 66.55937 | 25.82814 | 643 ft | 4 kts | 179° |
| 2026-05-07 19:52 | 66.55961 | 25.82824 | 646 ft | 4 kts | 216° |
| 2026-05-07 19:52 | 66.55972 | 25.82856 | 645 ft | 1 kts | 258° |
| 2026-05-07 19:52 | 66.55973 | 25.82865 | 645 ft | 1 kts | 258° |
| 2026-05-07 19:53 | 66.55972 | 25.82865 | 645 ft | 0 kts | 258° |
| 2026-05-07 19:55 | 66.55971 | 25.82841 | 641 ft | 6 kts | 259° |
| 2026-05-07 19:55 | 66.55965 | 25.82770 | 641 ft | 1 kts | 257° |
| 2026-05-07 19:56 | 66.55953 | 25.82637 | 640 ft | 9 kts | 258° |
| 2026-05-07 19:56 | 66.55948 | 25.82522 | 641 ft | 5 kts | 276° |
| 2026-05-07 19:56 | 66.55972 | 25.82416 | 642 ft | 13 kts | 308° |
| 2026-05-07 19:56 | 66.56022 | 25.82255 | 640 ft | 8 kts | 309° |
| 2026-05-07 19:57 | 66.56075 | 25.82261 | 643 ft | 8 kts | 43° |
| 2026-05-07 19:57 | 66.56116 | 25.82341 | 643 ft | 32 kts | 36° |
| 2026-05-07 19:57 | 66.56486 | 25.83043 | 650 ft | 100 kts | 37° |
| 2026-05-07 19:57 | 66.57202 | 25.84405 | 641 ft | 160 kts | 36° |
| 2026-05-07 19:58 | 66.58124 | 25.86172 | 1335 ft | 168 kts | 37° |
| 2026-05-07 19:58 | 66.59054 | 25.87950 | 2198 ft | 171 kts | 35° |
| 2026-05-07 19:58 | 66.60050 | 25.89846 | 2618 ft | 190 kts | 35° |
| 2026-05-07 19:58 | 66.61118 | 25.92068 | 3072 ft | 206 kts | 50° |
| 2026-05-07 19:59 | 66.61562 | 25.95477 | 3703 ft | 215 kts | 94° |
| 2026-05-07 19:59 | 66.61043 | 25.99152 | 4061 ft | 236 kts | 122° |
| 2026-05-07 19:59 | 66.60058 | 26.02576 | 4816 ft | 245 kts | 130° |
| 2026-05-07 19:59 | 66.58889 | 26.05722 | 5688 ft | 249 kts | 144° |
| 2026-05-07 20:00 | 66.57325 | 26.07586 | 6563 ft | 251 kts | 167° |
| 2026-05-07 20:00 | 66.55563 | 26.07960 | 7204 ft | 264 kts | 188° |
| 2026-05-07 20:00 | 66.53785 | 26.06554 | 7876 ft | 273 kts | 207° |
| 2026-05-07 20:00 | 66.52057 | 26.04496 | 8746 ft | 277 kts | 207° |
| 2026-05-07 20:01 | 66.50296 | 26.02426 | 9644 ft | 282 kts | 206° |
| 2026-05-07 20:01 | 66.48499 | 26.00324 | 10395 ft | 291 kts | 206° |
| 2026-05-07 20:01 | 66.46591 | 25.98082 | 10687 ft | 315 kts | 206° |
| 2026-05-07 20:01 | 66.44537 | 25.95666 | 11008 ft | 335 kts | 206° |
| 2026-05-07 20:02 | 66.42402 | 25.93158 | 11694 ft | 342 kts | 206° |
| 2026-05-07 20:02 | 66.40234 | 25.90629 | 12474 ft | 346 kts | 206° |
| 2026-05-07 20:02 | 66.38070 | 25.88114 | 13252 ft | 349 kts | 206° |
| 2026-05-07 20:02 | 66.35855 | 25.85553 | 14011 ft | 353 kts | 206° |
| 2026-05-07 20:03 | 66.33616 | 25.82967 | 14683 ft | 357 kts | 206° |
| 2026-05-07 20:03 | 66.31355 | 25.80351 | 15354 ft | 360 kts | 206° |
| 2026-05-07 20:03 | 66.29069 | 25.77706 | 16021 ft | 364 kts | 206° |
| 2026-05-07 20:03 | 66.26760 | 25.75033 | 16681 ft | 368 kts | 205° |
| 2026-05-07 20:04 | 66.24418 | 25.72336 | 17341 ft | 372 kts | 205° |
| 2026-05-07 20:04 | 66.22062 | 25.69631 | 18008 ft | 376 kts | 205° |
| 2026-05-07 20:04 | 66.19677 | 25.66904 | 18621 ft | 379 kts | 205° |
| 2026-05-07 20:04 | 66.17269 | 25.64161 | 19204 ft | 382 kts | 205° |
| 2026-05-07 20:05 | 66.14841 | 25.61397 | 19793 ft | 385 kts | 205° |
| 2026-05-07 20:05 | 66.12395 | 25.58606 | 20387 ft | 388 kts | 205° |
| 2026-05-07 20:05 | 66.09921 | 25.55839 | 20979 ft | 392 kts | 202° |
| 2026-05-07 20:05 | 66.07308 | 25.53848 | 21543 ft | 395 kts | 192° |
| 2026-05-07 20:06 | 66.04598 | 25.52979 | 22057 ft | 400 kts | 182° |
| 2026-05-07 20:06 | 66.01809 | 25.52833 | 22586 ft | 403 kts | 181° |
| 2026-05-07 20:06 | 65.98991 | 25.52685 | 23104 ft | 406 kts | 181° |
| 2026-05-07 20:06 | 65.96157 | 25.52516 | 23614 ft | 409 kts | 181° |
| 2026-05-07 20:07 | 65.93300 | 25.52334 | 24029 ft | 412 kts | 181° |
| 2026-05-07 20:07 | 65.90426 | 25.52143 | 24419 ft | 415 kts | 182° |
| 2026-05-07 20:07 | 65.87528 | 25.51955 | 24814 ft | 417 kts | 182° |
| 2026-05-07 20:07 | 65.84618 | 25.51777 | 25184 ft | 420 kts | 182° |
| 2026-05-07 20:08 | 65.81688 | 25.51606 | 25552 ft | 423 kts | 182° |
| 2026-05-07 20:08 | 65.78741 | 25.51438 | 25926 ft | 425 kts | 182° |
| 2026-05-07 20:08 | 65.75766 | 25.51263 | 26289 ft | 428 kts | 182° |
| 2026-05-07 20:08 | 65.72776 | 25.51087 | 26649 ft | 430 kts | 182° |
| 2026-05-07 20:09 | 65.69772 | 25.50911 | 27004 ft | 433 kts | 183° |
| 2026-05-07 20:09 | 65.66748 | 25.50726 | 27346 ft | 435 kts | 183° |
| 2026-05-07 20:09 | 65.63709 | 25.50536 | 27694 ft | 438 kts | 183° |
| 2026-05-07 20:10 | 65.57584 | 25.50166 | 28354 ft | 443 kts | 183° |
| 2026-05-07 20:10 | 65.54528 | 25.49991 | 28663 ft | 445 kts | 184° |
| 2026-05-07 20:10 | 65.51421 | 25.49813 | 28971 ft | 448 kts | 184° |
| 2026-05-07 20:10 | 65.48296 | 25.49632 | 29261 ft | 450 kts | 184° |
| 2026-05-07 20:11 | 65.45160 | 25.49449 | 29542 ft | 452 kts | 184° |
| 2026-05-07 20:11 | 65.42010 | 25.49265 | 29814 ft | 454 kts | 184° |
| 2026-05-07 20:11 | 65.38842 | 25.49083 | 30054 ft | 456 kts | 184° |
| 2026-05-07 20:11 | 65.35662 | 25.48895 | 30282 ft | 458 kts | 184° |
| 2026-05-07 20:12 | 65.32467 | 25.48703 | 30509 ft | 459 kts | 184° |
| 2026-05-07 20:12 | 65.29277 | 25.48519 | 30784 ft | 459 kts | 184° |
| 2026-05-07 20:12 | 65.26081 | 25.48336 | 31053 ft | 459 kts | 184° |
| 2026-05-07 20:12 | 65.22889 | 25.48158 | 31317 ft | 459 kts | 184° |
| 2026-05-07 20:13 | 65.19698 | 25.47980 | 31582 ft | 459 kts | 184° |
| 2026-05-07 20:13 | 65.16510 | 25.47797 | 31858 ft | 459 kts | 184° |
| 2026-05-07 20:13 | 65.13315 | 25.47611 | 32129 ft | 459 kts | 184° |
| 2026-05-07 20:13 | 65.10124 | 25.47426 | 32410 ft | 459 kts | 184° |
| 2026-05-07 20:14 | 65.06934 | 25.47243 | 32680 ft | 459 kts | 185° |
| 2026-05-07 20:14 | 65.03740 | 25.47066 | 32941 ft | 458 kts | 185° |
| 2026-05-07 20:14 | 65.00555 | 25.46892 | 33226 ft | 458 kts | 185° |
| 2026-05-07 20:14 | 64.97367 | 25.46719 | 33510 ft | 458 kts | 185° |
| 2026-05-07 20:15 | 64.94181 | 25.46538 | 33791 ft | 458 kts | 185° |
| 2026-05-07 20:15 | 64.90991 | 25.46353 | 34071 ft | 458 kts | 185° |
| 2026-05-07 20:15 | 64.87808 | 25.46168 | 34311 ft | 458 kts | 185° |
| 2026-05-07 20:15 | 64.84621 | 25.45981 | 34548 ft | 458 kts | 185° |
| 2026-05-07 20:16 | 64.81450 | 25.45795 | 34784 ft | 458 kts | 185° |
| 2026-05-07 20:16 | 64.78299 | 25.45609 | 35014 ft | 457 kts | 185° |
| 2026-05-07 20:16 | 64.75114 | 25.45423 | 35245 ft | 457 kts | 185° |
| 2026-05-07 20:16 | 64.71933 | 25.45242 | 35464 ft | 457 kts | 185° |
| 2026-05-07 20:17 | 64.68750 | 25.45066 | 35658 ft | 457 kts | 185° |
| 2026-05-07 20:17 | 64.65574 | 25.44896 | 35873 ft | 457 kts | 185° |
| 2026-05-07 20:17 | 64.62415 | 25.44697 | 36194 ft | 453 kts | 185° |
| 2026-05-07 20:17 | 64.59255 | 25.44501 | 36327 ft | 455 kts | 185° |
| 2026-05-07 20:18 | 64.56090 | 25.44327 | 36491 ft | 456 kts | 185° |
| 2026-05-07 20:18 | 64.52919 | 25.44160 | 36654 ft | 456 kts | 185° |
| 2026-05-07 20:18 | 64.49748 | 25.43998 | 36830 ft | 456 kts | 185° |
| 2026-05-07 20:18 | 64.46575 | 25.43833 | 36999 ft | 456 kts | 185° |
| 2026-05-07 20:19 | 64.43403 | 25.43665 | 37109 ft | 456 kts | 185° |
| 2026-05-07 20:19 | 64.38125 | 25.43370 | 37128 ft | 456 kts | 185° |
| 2026-05-07 20:20 | 64.31775 | 25.43018 | 37136 ft | 457 kts | 185° |
| 2026-05-07 20:20 | 64.25421 | 25.42676 | 37130 ft | 455 kts | 186° |
| 2026-05-07 20:21 | 64.19089 | 25.42327 | 37130 ft | 455 kts | 186° |
| 2026-05-07 20:21 | 64.12757 | 25.41983 | 37128 ft | 455 kts | 185° |
| 2026-05-07 20:22 | 64.06417 | 25.41641 | 37129 ft | 455 kts | 186° |
| 2026-05-07 20:22 | 64.00071 | 25.41293 | 37111 ft | 456 kts | 186° |
| 2026-05-07 20:23 | 63.93728 | 25.40950 | 37124 ft | 456 kts | 186° |
| 2026-05-07 20:23 | 63.87388 | 25.40611 | 37137 ft | 456 kts | 186° |
| 2026-05-07 20:24 | 63.81042 | 25.40281 | 37139 ft | 456 kts | 186° |
| 2026-05-07 20:24 | 63.74735 | 25.39947 | 37142 ft | 456 kts | 186° |
| 2026-05-07 20:25 | 63.68379 | 25.39622 | 37120 ft | 456 kts | 186° |
| 2026-05-07 20:25 | 63.62036 | 25.39285 | 37135 ft | 456 kts | 186° |
| 2026-05-07 20:26 | 63.55690 | 25.38955 | 37140 ft | 456 kts | 186° |
| 2026-05-07 20:26 | 63.49347 | 25.38630 | 37129 ft | 455 kts | 186° |
| 2026-05-07 20:27 | 63.43014 | 25.38289 | 37142 ft | 455 kts | 186° |
| 2026-05-07 20:27 | 63.36727 | 25.37969 | 37148 ft | 455 kts | 186° |
| 2026-05-07 20:28 | 63.30355 | 25.37651 | 37123 ft | 455 kts | 186° |
| 2026-05-07 20:28 | 63.24024 | 25.37327 | 37134 ft | 455 kts | 186° |
| 2026-05-07 20:29 | 63.17720 | 25.37010 | 37143 ft | 456 kts | 186° |
| 2026-05-07 20:29 | 63.14556 | 25.36856 | 36945 ft | 455 kts | 186° |
| 2026-05-07 20:29 | 63.11390 | 25.36702 | 36297 ft | 454 kts | 186° |
| 2026-05-07 20:29 | 63.08235 | 25.36543 | 35575 ft | 454 kts | 186° |
| 2026-05-07 20:30 | 63.05071 | 25.36380 | 34858 ft | 454 kts | 186° |
| 2026-05-07 20:30 | 63.01909 | 25.36216 | 34104 ft | 454 kts | 187° |
| 2026-05-07 20:30 | 62.98754 | 25.36051 | 33238 ft | 454 kts | 187° |
| 2026-05-07 20:30 | 62.95593 | 25.35881 | 32359 ft | 454 kts | 187° |
| 2026-05-07 20:31 | 62.92430 | 25.35711 | 31462 ft | 455 kts | 187° |
| 2026-05-07 20:31 | 62.89296 | 25.35552 | 30578 ft | 456 kts | 187° |
| 2026-05-07 20:31 | 62.86116 | 25.35398 | 29690 ft | 456 kts | 187° |
| 2026-05-07 20:31 | 62.82969 | 25.35253 | 28965 ft | 449 kts | 187° |
| 2026-05-07 20:32 | 62.79858 | 25.35119 | 28228 ft | 443 kts | 187° |
| 2026-05-07 20:32 | 62.76798 | 25.34986 | 27597 ft | 436 kts | 187° |
| 2026-05-07 20:32 | 62.73783 | 25.34845 | 26969 ft | 430 kts | 187° |
| 2026-05-07 20:32 | 62.70813 | 25.34696 | 26343 ft | 425 kts | 187° |
| 2026-05-07 20:33 | 62.67872 | 25.34546 | 25687 ft | 420 kts | 187° |
| 2026-05-07 20:33 | 62.64966 | 25.34399 | 25065 ft | 415 kts | 187° |
| 2026-05-07 20:33 | 62.62087 | 25.34251 | 24468 ft | 411 kts | 187° |
| 2026-05-07 20:33 | 62.59240 | 25.34106 | 23884 ft | 407 kts | 187° |
| 2026-05-07 20:34 | 62.56421 | 25.33956 | 23230 ft | 404 kts | 187° |
| 2026-05-07 20:34 | 62.53657 | 25.33814 | 22578 ft | 400 kts | 187° |
| 2026-05-07 20:34 | 62.50848 | 25.33679 | 21948 ft | 397 kts | 187° |
| 2026-05-07 20:34 | 62.48097 | 25.33553 | 21350 ft | 394 kts | 186° |
| 2026-05-07 20:35 | 62.45397 | 25.33434 | 20783 ft | 391 kts | 186° |
| 2026-05-07 20:35 | 62.42686 | 25.33313 | 20220 ft | 389 kts | 186° |
| 2026-05-07 20:35 | 62.39986 | 25.33192 | 19679 ft | 386 kts | 186° |
| 2026-05-07 20:35 | 62.37308 | 25.33070 | 19141 ft | 384 kts | 185° |
| 2026-05-07 20:36 | 62.34646 | 25.32945 | 18606 ft | 381 kts | 185° |
| 2026-05-07 20:36 | 62.31999 | 25.32817 | 18019 ft | 379 kts | 185° |
| 2026-05-07 20:36 | 62.29367 | 25.32688 | 17469 ft | 376 kts | 185° |
| 2026-05-07 20:36 | 62.26760 | 25.32554 | 16919 ft | 373 kts | 185° |
| 2026-05-07 20:37 | 62.24194 | 25.32428 | 16689 ft | 362 kts | 185° |
| 2026-05-07 20:37 | 62.21719 | 25.32316 | 16545 ft | 350 kts | 185° |
| 2026-05-07 20:37 | 62.19327 | 25.32215 | 16408 ft | 338 kts | 185° |
| 2026-05-07 20:37 | 62.17013 | 25.32113 | 16268 ft | 327 kts | 185° |
| 2026-05-07 20:38 | 62.14773 | 25.32006 | 16134 ft | 317 kts | 185° |
| 2026-05-07 20:38 | 62.12600 | 25.31901 | 15991 ft | 308 kts | 185° |
| 2026-05-07 20:38 | 62.10491 | 25.31801 | 15864 ft | 299 kts | 185° |
| 2026-05-07 20:38 | 62.08440 | 25.31710 | 15730 ft | 291 kts | 185° |
| 2026-05-07 20:39 | 62.06444 | 25.31623 | 15585 ft | 283 kts | 186° |
| 2026-05-07 20:39 | 62.04474 | 25.31526 | 14915 ft | 294 kts | 186° |
| 2026-05-07 20:39 | 62.02404 | 25.31411 | 14583 ft | 301 kts | 186° |
| 2026-05-07 20:39 | 62.00300 | 25.31297 | 14335 ft | 303 kts | 186° |
| 2026-05-07 20:40 | 61.98190 | 25.31194 | 14084 ft | 302 kts | 185° |
| 2026-05-07 20:40 | 61.96090 | 25.31102 | 13819 ft | 302 kts | 185° |
| 2026-05-07 20:40 | 61.93995 | 25.31013 | 13535 ft | 300 kts | 185° |
| 2026-05-07 20:40 | 61.91905 | 25.30921 | 13254 ft | 299 kts | 185° |
| 2026-05-07 20:41 | 61.89832 | 25.30824 | 12980 ft | 298 kts | 185° |
| 2026-05-07 20:41 | 61.87760 | 25.30725 | 12705 ft | 297 kts | 185° |
| 2026-05-07 20:41 | 61.85699 | 25.30627 | 12430 ft | 296 kts | 185° |
| 2026-05-07 20:41 | 61.83646 | 25.30528 | 12161 ft | 295 kts | 185° |
| 2026-05-07 20:42 | 61.81600 | 25.30432 | 11891 ft | 294 kts | 185° |
| 2026-05-07 20:42 | 61.79564 | 25.30339 | 11628 ft | 292 kts | 185° |
| 2026-05-07 20:42 | 61.77555 | 25.30248 | 11357 ft | 291 kts | 185° |
| 2026-05-07 20:42 | 61.75531 | 25.30156 | 11095 ft | 290 kts | 185° |
| 2026-05-07 20:43 | 61.73515 | 25.30062 | 10823 ft | 289 kts | 185° |
| 2026-05-07 20:43 | 61.71507 | 25.29969 | 10584 ft | 288 kts | 185° |
| 2026-05-07 20:43 | 61.69501 | 25.29880 | 10307 ft | 288 kts | 185° |
| 2026-05-07 20:43 | 61.67501 | 25.29793 | 10142 ft | 287 kts | 185° |
| 2026-05-07 20:44 | 61.65504 | 25.29705 | 10135 ft | 288 kts | 185° |
| 2026-05-07 20:44 | 61.63500 | 25.29615 | 10135 ft | 288 kts | 185° |
| 2026-05-07 20:44 | 61.61496 | 25.29522 | 10135 ft | 288 kts | 185° |
| 2026-05-07 20:44 | 61.59496 | 25.29429 | 10137 ft | 288 kts | 185° |
| 2026-05-07 20:45 | 61.57492 | 25.29337 | 10140 ft | 288 kts | 185° |
| 2026-05-07 20:45 | 61.55489 | 25.29239 | 10137 ft | 288 kts | 185° |
| 2026-05-07 20:45 | 61.53484 | 25.29137 | 10139 ft | 288 kts | 185° |
| 2026-05-07 20:45 | 61.51481 | 25.29042 | 10137 ft | 288 kts | 185° |
| 2026-05-07 20:46 | 61.49474 | 25.28946 | 10132 ft | 288 kts | 185° |
| 2026-05-07 20:46 | 61.47470 | 25.28850 | 10130 ft | 288 kts | 185° |
| 2026-05-07 20:46 | 61.45461 | 25.28753 | 10131 ft | 288 kts | 185° |
| 2026-05-07 20:46 | 61.43459 | 25.28659 | 10131 ft | 288 kts | 185° |
| 2026-05-07 20:47 | 61.41451 | 25.28567 | 10134 ft | 288 kts | 185° |
| 2026-05-07 20:47 | 61.39445 | 25.28475 | 10133 ft | 288 kts | 185° |
| 2026-05-07 20:47 | 61.37436 | 25.28382 | 10121 ft | 288 kts | 185° |
| 2026-05-07 20:47 | 61.35430 | 25.28289 | 10128 ft | 288 kts | 185° |
| 2026-05-07 20:48 | 61.33435 | 25.28199 | 10128 ft | 283 kts | 185° |
| 2026-05-07 20:48 | 61.31477 | 25.28111 | 10129 ft | 279 kts | 185° |
| 2026-05-07 20:48 | 61.29562 | 25.28027 | 10130 ft | 279 kts | 185° |
| 2026-05-07 20:48 | 61.27623 | 25.27937 | 10130 ft | 279 kts | 185° |
| 2026-05-07 20:49 | 61.25681 | 25.27845 | 10128 ft | 279 kts | 185° |
| 2026-05-07 20:49 | 61.23742 | 25.27751 | 10135 ft | 279 kts | 185° |
| 2026-05-07 20:49 | 61.21802 | 25.27648 | 10136 ft | 279 kts | 185° |
| 2026-05-07 20:49 | 61.19862 | 25.27554 | 10128 ft | 279 kts | 185° |
| 2026-05-07 20:50 | 61.17924 | 25.27470 | 10132 ft | 279 kts | 185° |
| 2026-05-07 20:50 | 61.15985 | 25.27385 | 10130 ft | 279 kts | 185° |
| 2026-05-07 20:50 | 61.14039 | 25.27300 | 10130 ft | 279 kts | 185° |
| 2026-05-07 20:50 | 61.12101 | 25.27223 | 10130 ft | 279 kts | 184° |
| 2026-05-07 20:51 | 61.10160 | 25.27145 | 10131 ft | 279 kts | 185° |
| 2026-05-07 20:51 | 61.08220 | 25.27054 | 10133 ft | 279 kts | 185° |
| 2026-05-07 20:51 | 61.06280 | 25.26962 | 10133 ft | 279 kts | 185° |
| 2026-05-07 20:51 | 61.04334 | 25.26874 | 10130 ft | 281 kts | 184° |
| 2026-05-07 20:52 | 61.02396 | 25.26790 | 10127 ft | 282 kts | 184° |
| 2026-05-07 20:52 | 61.00432 | 25.26704 | 10130 ft | 282 kts | 185° |
| 2026-05-07 20:52 | 60.98465 | 25.26615 | 10133 ft | 282 kts | 185° |
| 2026-05-07 20:52 | 60.96502 | 25.26532 | 10133 ft | 282 kts | 184° |
| 2026-05-07 20:53 | 60.94535 | 25.26466 | 10088 ft | 283 kts | 183° |
| 2026-05-07 20:53 | 60.92603 | 25.26529 | 9953 ft | 272 kts | 181° |
| 2026-05-07 20:53 | 60.90744 | 25.26664 | 9805 ft | 262 kts | 181° |
| 2026-05-07 20:53 | 60.88953 | 25.26816 | 9664 ft | 252 kts | 181° |
| 2026-05-07 20:54 | 60.87234 | 25.26964 | 9531 ft | 242 kts | 181° |
| 2026-05-07 20:54 | 60.85563 | 25.27095 | 9394 ft | 242 kts | 181° |
| 2026-05-07 20:54 | 60.83860 | 25.27214 | 9257 ft | 246 kts | 181° |
| 2026-05-07 20:54 | 60.82145 | 25.27332 | 9118 ft | 246 kts | 181° |
| 2026-05-07 20:55 | 60.80434 | 25.27446 | 8984 ft | 246 kts | 181° |
| 2026-05-07 20:55 | 60.78722 | 25.27555 | 8850 ft | 246 kts | 181° |
| 2026-05-07 20:55 | 60.77013 | 25.27663 | 8714 ft | 246 kts | 181° |
| 2026-05-07 20:55 | 60.75308 | 25.27772 | 8580 ft | 245 kts | 181° |
| 2026-05-07 20:56 | 60.73602 | 25.27883 | 8436 ft | 245 kts | 181° |
| 2026-05-07 20:56 | 60.71894 | 25.27909 | 8304 ft | 245 kts | 188° |
| 2026-05-07 20:56 | 60.70260 | 25.27215 | 8172 ft | 242 kts | 202° |
| 2026-05-07 20:56 | 60.68756 | 25.25727 | 8039 ft | 238 kts | 216° |
| 2026-05-07 20:57 | 60.67494 | 25.23593 | 7907 ft | 235 kts | 230° |
| 2026-05-07 20:57 | 60.66466 | 25.21015 | 7777 ft | 234 kts | 234° |
| 2026-05-07 20:57 | 60.65460 | 25.18413 | 7648 ft | 234 kts | 234° |
| 2026-05-07 20:57 | 60.64453 | 25.15814 | 7520 ft | 233 kts | 234° |
| 2026-05-07 20:58 | 60.63446 | 25.13218 | 7386 ft | 233 kts | 233° |
| 2026-05-07 20:58 | 60.62274 | 25.10938 | 7254 ft | 235 kts | 219° |
| 2026-05-07 20:58 | 60.60830 | 25.09392 | 7131 ft | 238 kts | 198° |
| 2026-05-07 20:58 | 60.59210 | 25.08645 | 7000 ft | 239 kts | 193° |
| 2026-05-07 20:59 | 60.57546 | 25.08619 | 6877 ft | 242 kts | 172° |
| 2026-05-07 20:59 | 60.55896 | 25.09361 | 6749 ft | 243 kts | 168° |
| 2026-05-07 20:59 | 60.54259 | 25.10202 | 6619 ft | 243 kts | 168° |
| 2026-05-07 20:59 | 60.52617 | 25.10930 | 6496 ft | 241 kts | 174° |
| 2026-05-07 21:00 | 60.50953 | 25.11349 | 6351 ft | 241 kts | 174° |
| 2026-05-07 21:00 | 60.49285 | 25.11715 | 6227 ft | 242 kts | 175° |
| 2026-05-07 21:00 | 60.47612 | 25.12068 | 6100 ft | 242 kts | 175° |
| 2026-05-07 21:00 | 60.45927 | 25.12417 | 5958 ft | 248 kts | 175° |
| 2026-05-07 21:01 | 60.44195 | 25.12775 | 5827 ft | 252 kts | 175° |
| 2026-05-07 21:01 | 60.42446 | 25.13141 | 5696 ft | 253 kts | 174° |
| 2026-05-07 21:01 | 60.40697 | 25.13512 | 5563 ft | 253 kts | 174° |
| 2026-05-07 21:01 | 60.38947 | 25.13885 | 5432 ft | 253 kts | 174° |
| 2026-05-07 21:02 | 60.37197 | 25.14261 | 5302 ft | 253 kts | 174° |
| 2026-05-07 21:02 | 60.35448 | 25.14636 | 5173 ft | 253 kts | 174° |
| 2026-05-07 21:02 | 60.33703 | 25.15050 | 5045 ft | 253 kts | 169° |
| 2026-05-07 21:02 | 60.32069 | 25.16188 | 4915 ft | 252 kts | 152° |
| 2026-05-07 21:03 | 60.30504 | 25.17796 | 4783 ft | 253 kts | 152° |
| 2026-05-07 21:03 | 60.28934 | 25.19399 | 4649 ft | 253 kts | 152° |
| 2026-05-07 21:03 | 60.27391 | 25.20965 | 4504 ft | 244 kts | 152° |
| 2026-05-07 21:03 | 60.25886 | 25.22492 | 4380 ft | 241 kts | 152° |
| 2026-05-07 21:04 | 60.24388 | 25.24014 | 4246 ft | 241 kts | 152° |
| 2026-05-07 21:04 | 60.22889 | 25.25530 | 4118 ft | 241 kts | 153° |
| 2026-05-07 21:04 | 60.21351 | 25.26850 | 3980 ft | 239 kts | 167° |
| 2026-05-07 21:04 | 60.19730 | 25.26897 | 3857 ft | 232 kts | 194° |
| 2026-05-07 21:05 | 60.18294 | 25.25549 | 3715 ft | 227 kts | 222° |
| 2026-05-07 21:05 | 60.17318 | 25.23132 | 3598 ft | 222 kts | 248° |
| 2026-05-07 21:05 | 60.16828 | 25.20223 | 3486 ft | 220 kts | 257° |
| 2026-05-07 21:05 | 60.16498 | 25.17248 | 3335 ft | 215 kts | 274° |
| 2026-05-07 21:06 | 60.16805 | 25.14402 | 3238 ft | 206 kts | 300° |
| 2026-05-07 21:06 | 60.17686 | 25.12223 | 3129 ft | 202 kts | 325° |
| 2026-05-07 21:06 | 60.18483 | 25.11286 | 3087 ft | 200 kts | 335° |
| 2026-05-07 21:06 | 60.19708 | 25.10055 | 2791 ft | 198 kts | 335° |
| 2026-05-07 21:07 | 60.20918 | 25.08820 | 2384 ft | 190 kts | 335° |
| 2026-05-07 21:07 | 60.22048 | 25.07661 | 2154 ft | 173 kts | 335° |
| 2026-05-07 21:07 | 60.23079 | 25.06605 | 1909 ft | 160 kts | 335° |
| 2026-05-07 21:07 | 60.24029 | 25.05630 | 1707 ft | 144 kts | 335° |
| 2026-05-07 21:08 | 60.24881 | 25.04760 | 1511 ft | 133 kts | 335° |
| 2026-05-07 21:08 | 60.25689 | 25.03939 | 1346 ft | 129 kts | 334° |
| 2026-05-07 21:08 | 60.26482 | 25.03133 | 1177 ft | 127 kts | 334° |
| 2026-05-07 21:08 | 60.27266 | 25.02335 | 1011 ft | 126 kts | 333° |
| 2026-05-07 21:09 | 60.28052 | 25.01534 | 837 ft | 126 kts | 333° |
| 2026-05-07 21:09 | 60.28834 | 25.00728 | 700 ft | 126 kts | 332° |
| 2026-05-07 21:09 | 60.29616 | 24.99912 | 504 ft | 127 kts | 333° |
| 2026-05-07 21:09 | 60.30405 | 24.99123 | 268 ft | 126 kts | 333° |
| 2026-05-07 21:10 | 60.31170 | 24.98343 | 158 ft | 112 kts | 333° |
| 2026-05-07 21:10 | 60.31587 | 24.97919 | 153 ft | 26 kts | 333° |
| 2026-05-07 21:10 | 60.31683 | 24.97731 | 152 ft | 12 kts | 272° |
| 2026-05-07 21:10 | 60.31668 | 24.97611 | 155 ft | 7 kts | 246° |
| 2026-05-07 21:11 | 60.31656 | 24.97565 | 157 ft | 1 kts | 243° |
| 2026-05-07 21:11 | 60.31638 | 24.97490 | 161 ft | 7 kts | 243° |
| 2026-05-07 21:11 | 60.31642 | 24.97391 | 165 ft | 5 kts | 311° |
| 2026-05-07 21:12 | 60.31691 | 24.97330 | 166 ft | 6 kts | 330° |
| 2026-05-07 21:12 | 60.31687 | 24.97264 | 166 ft | 4 kts | 241° |
| 2026-05-07 21:12 | 60.31675 | 24.97217 | 167 ft | 2 kts | 243° |
| 2026-05-07 21:12 | 60.31672 | 24.97206 | 167 ft | 0 kts | 243° |